Time;durP1;ratioP1;P1;durP2;ratioP2;P2;SDS_P1;SDS_P2;PMS_P1;PMS_P2;Temp;Humidity;BMP_temperature;BMP_pressure;BME280_temperature;BME280_humidity;BME280_pressure;Samples;Min_cycle;Max_cycle;Signal;HPM_P1;HPM_P2
2022/03/29 00:01:05;;;;;;;0.63;0.63;;;;;;;9.15;86.42;100082.69;5067515;28;20490;-52
2022/03/29 00:03:32;;;;;;;0.60;0.50;;;;;;;9.07;87.00;100093.53;5055850;28;20443;-52
2022/03/29 00:05:58;;;;;;;1.07;1.07;;;;;;;9.00;86.98;100077.81;5038452;28;20451;-52
2022/03/29 00:08:25;;;;;;;0.50;0.50;;;;;;;8.94;87.93;100084.13;5055516;28;20467;-52
2022/03/29 00:10:52;;;;;;;0.37;0.30;;;;;;;8.92;88.26;100087.75;5055535;28;20443;-52
2022/03/29 00:13:18;;;;;;;1.70;1.60;;;;;;;8.97;87.77;100089.34;5054981;28;20473;-51
2022/03/29 00:15:45;;;;;;;24.53;1.90;;;;;;;8.84;88.23;100077.31;5055406;28;20458;-52
2022/03/29 00:18:12;;;;;;;0.60;0.60;;;;;;;8.98;87.42;100084.94;5055608;28;20524;-52
2022/03/29 00:20:38;;;;;;;0.40;0.30;;;;;;;8.99;87.20;100063.69;5055933;28;20486;-50
2022/03/29 00:23:05;;;;;;;0.30;0.20;;;;;;;9.03;87.18;100060.03;5054965;28;20791;-53
2022/03/29 00:25:33;;;;;;;0.30;0.20;;;;;;;8.88;87.38;100061.28;5055087;28;20446;-53
2022/03/29 00:28:00;;;;;;;0.30;0.20;;;;;;;8.86;87.94;100059.59;5055161;28;20825;-53
2022/03/29 00:30:26;;;;;;;0.40;0.20;;;;;;;8.89;88.36;100059.50;5055798;28;20500;-54
2022/03/29 00:32:53;;;;;;;0.30;0.20;;;;;;;8.71;88.88;100060.84;5055407;28;20463;-53
2022/03/29 00:35:20;;;;;;;4.23;0.77;;;;;;;8.51;89.33;100056.06;5055770;28;20446;-53
2022/03/29 00:37:48;;;;;;;0.30;0.20;;;;;;;8.80;89.30;100049.16;5055161;28;20542;-53
2022/03/29 00:40:15;;;;;;;0.30;0.20;;;;;;;8.89;88.42;100054.22;5054955;28;20544;-53
2022/03/29 00:42:42;;;;;;;0.60;0.60;;;;;;;8.92;88.88;100050.63;5036903;28;20489;-53
2022/03/29 00:45:09;;;;;;;0.30;0.20;;;;;;;9.00;87.33;100041.56;5054365;28;20454;-54
2022/03/29 00:47:36;;;;;;;0.53;0.53;;;;;;;8.90;87.82;100048.88;5054588;28;20470;-53
2022/03/29 00:50:04;;;;;;;0.40;0.40;;;;;;;8.93;88.26;100049.72;5054808;28;20451;-53
2022/03/29 00:52:33;;;;;;;0.33;0.23;;;;;;;8.88;88.00;100048.03;5054887;28;20458;-53
2022/03/29 00:55:00;;;;;;;3.20;2.00;;;;;;;8.74;89.53;100051.94;5055206;28;20510;-53
2022/03/29 00:57:30;;;;;;;0.30;0.20;;;;;;;8.69;90.09;100040.59;5055530;28;20471;-53
2022/03/29 00:59:58;;;;;;;0.30;0.20;;;;;;;8.57;89.99;100040.00;5054108;28;20443;-53
2022/03/29 01:02:25;;;;;;;0.50;0.50;;;;;;;8.77;90.06;100041.25;5054940;28;20447;-53
2022/03/29 01:04:52;;;;;;;0.40;0.30;;;;;;;8.79;89.77;100031.53;5054300;28;20485;-54
2022/03/29 01:07:19;;;;;;;0.73;0.73;;;;;;;8.98;88.74;100031.91;5053802;28;20471;-53
2022/03/29 01:09:45;;;;;;;0.30;0.20;;;;;;;8.95;88.21;100032.88;5054021;28;20481;-53
2022/03/29 01:12:12;;;;;;;1.67;0.93;;;;;;;8.91;88.19;100028.56;5054027;28;20812;-53
2022/03/29 01:14:39;;;;;;;0.97;0.67;;;;;;;8.84;88.75;100024.31;5054431;28;20907;-53
2022/03/29 01:19:55;;;;;;;0.30;0.20;;;;;;;8.85;89.37;100026.06;5054830;28;20486;-52
2022/03/29 01:22:22;;;;;;;0.77;0.77;;;;;;;8.59;90.94;100019.63;5054635;28;20497;-52
2022/03/29 01:24:51;;;;;;;0.70;0.70;;;;;;;8.77;90.03;100020.06;5054717;28;20446;-52
2022/03/29 01:27:19;;;;;;;1.40;1.40;;;;;;;8.76;90.38;100013.03;5054567;28;20474;-52
2022/03/29 01:29:47;;;;;;;0.90;0.90;;;;;;;8.89;89.06;100012.66;5054671;28;20447;-53
2022/03/29 01:32:13;;;;;;;0.50;0.50;;;;;;;8.80;89.50;100009.41;5054558;28;20481;-52
2022/03/29 01:34:42;;;;;;;0.30;0.20;;;;;;;8.58;90.46;100003.78;5054966;28;20455;-52
2022/03/29 01:37:10;;;;;;;1.60;1.60;;;;;;;8.54;91.46;100000.34;5055060;28;20455;-53
2022/03/29 01:39:37;;;;;;;0.30;0.20;;;;;;;8.64;90.56;100008.94;5054191;28;20947;-53
2022/03/29 01:42:05;;;;;;;0.30;0.30;;;;;;;8.63;90.61;100004.53;5054521;28;20494;-53
2022/03/29 01:44:32;;;;;;;0.70;0.67;;;;;;;8.67;90.45;100000.03;5054676;28;20454;-53
2022/03/29 01:46:58;;;;;;;0.57;0.57;;;;;;;8.60;90.85;99994.00;5054208;28;20845;-53
2022/03/29 01:49:25;;;;;;;4.50;2.07;;;;;;;8.64;91.40;99993.03;5054110;28;20451;-53
2022/03/29 01:51:52;;;;;;;0.30;0.20;;;;;;;8.82;90.29;99989.03;5053967;28;20447;-53
2022/03/29 01:54:19;;;;;;;0.40;0.30;;;;;;;8.76;90.78;99991.81;5053681;28;20486;-53
2022/03/29 01:56:45;;;;;;;0.40;0.30;;;;;;;8.93;89.66;99978.16;5053985;28;20486;-53
2022/03/29 01:59:12;;;;;;;0.30;0.23;;;;;;;8.75;90.24;99990.09;5053497;28;20467;-53
2022/03/29 02:01:43;;;;;;;0.30;0.20;;;;;;;8.71;91.06;99988.44;5053842;28;20486;-53
2022/03/29 02:04:12;;;;;;;0.50;0.50;;;;;;;8.79;90.48;99990.00;5053933;28;20447;-53
2022/03/29 02:06:39;;;;;;;3.90;1.90;;;;;;;8.65;90.95;99993.91;5054091;28;20461;-53
2022/03/29 02:09:07;;;;;;;1.27;0.70;;;;;;;8.71;90.79;99989.31;5053804;28;20505;-53
2022/03/29 02:11:38;;;;;;;1.37;0.67;;;;;;;8.72;90.91;99984.88;5053260;28;20875;-53
2022/03/29 02:14:04;;;;;;;0.40;0.40;;;;;;;8.77;90.62;99985.63;5053570;28;20451;-53
2022/03/29 02:16:33;;;;;;;0.30;0.20;;;;;;;8.58;91.07;99985.22;5053803;28;20512;-53
2022/03/29 02:19:00;;;;;;;0.97;0.87;;;;;;;8.55;91.54;99991.47;5053694;28;20466;-54
2022/03/29 02:21:27;;;;;;;2.83;0.83;;;;;;;8.49;92.33;99991.63;5053389;28;20856;-54
2022/03/29 02:23:53;;;;;;;0.57;0.57;;;;;;;8.50;92.37;99981.94;5053344;28;20459;-53
2022/03/29 02:26:20;;;;;;;1.93;1.80;;;;;;;8.55;91.78;99987.97;5053563;28;20485;-53
2022/03/29 02:28:47;;;;;;;0.67;0.67;;;;;;;8.61;91.66;99970.13;5053395;28;20478;-52
2022/03/29 02:31:13;;;;;;;0.40;0.37;;;;;;;8.57;91.75;99967.59;5053463;28;20451;-52
2022/03/29 02:33:40;;;;;;;1.03;1.03;;;;;;;8.66;91.37;99966.50;5053534;28;20956;-55
2022/03/29 02:36:08;;;;;;;13.83;1.90;;;;;;;8.63;90.78;99951.53;5053251;28;20451;-52
2022/03/29 02:38:35;;;;;;;0.40;0.40;;;;;;;8.63;91.41;99962.13;5053452;28;20528;-52
2022/03/29 02:41:01;;;;;;;0.30;0.20;;;;;;;8.78;90.39;99955.59;5053200;28;20490;-52
2022/03/29 02:43:28;;;;;;;0.57;0.57;;;;;;;8.66;91.20;99961.22;5053012;28;20875;-52
2022/03/29 02:45:55;;;;;;;3.30;1.50;;;;;;;8.59;92.02;99956.03;5053282;28;20459;-54
2022/03/29 02:48:21;;;;;;;0.30;0.20;;;;;;;8.71;90.96;99954.00;5053197;28;20474;-54
2022/03/29 02:50:48;;;;;;;3.00;2.77;;;;;;;8.72;91.01;99948.66;5052723;28;20446;-54
2022/03/29 02:53:15;;;;;;;0.30;0.20;;;;;;;8.74;91.11;99938.88;5053034;28;20481;-51
2022/03/29 02:55:42;;;;;;;1.73;1.63;;;;;;;8.77;91.38;99935.28;5052553;28;20455;-55
2022/03/29 02:58:10;;;;;;;0.70;0.70;;;;;;;8.63;92.48;99937.41;5052619;28;20884;-54
2022/03/29 03:00:37;;;;;;;0.60;0.60;;;;;;;8.75;91.36;99935.31;5052363;28;20447;-54
2022/03/29 03:03:04;;;;;;;0.30;0.20;;;;;;;8.69;92.07;99934.63;5052653;28;20473;-54
2022/03/29 03:05:31;;;;;;;7.50;2.33;;;;;;;8.54;92.82;99925.31;5052886;28;20478;-54
2022/03/29 03:07:58;;;;;;;0.30;0.20;;;;;;;8.65;92.82;99932.97;5052903;28;20506;-54
2022/03/29 03:10:25;;;;;;;0.60;0.60;;;;;;;8.81;92.16;99936.94;5052564;28;20864;-54
2022/03/29 03:12:52;;;;;;;0.60;0.60;;;;;;;8.85;91.43;99928.00;5052046;28;20815;-54
2022/03/29 03:15:21;;;;;;;0.30;0.20;;;;;;;8.95;90.82;99932.13;5051831;28;20959;-55
2022/03/29 03:17:53;;;;;;;0.40;0.30;;;;;;;8.88;91.04;99919.94;5051905;28;20471;-54
2022/03/29 03:20:21;;;;;;;1.70;1.70;;;;;;;8.71;91.75;99920.41;5039142;28;20477;-54
2022/03/29 03:22:49;;;;;;;2.00;0.57;;;;;;;8.73;91.73;99920.38;5052727;28;21077;-51
2022/03/29 03:25:16;;;;;;;0.30;0.20;;;;;;;8.80;91.29;99916.66;5056713;28;20446;-54
2022/03/29 03:27:42;;;;;;;7.27;2.20;;;;;;;8.73;92.19;99920.38;5056067;28;20539;-54
2022/03/29 03:30:12;;;;;;;0.30;0.20;;;;;;;8.59;93.36;99913.66;5056008;28;20447;-54
2022/03/29 03:32:39;;;;;;;0.30;0.20;;;;;;;8.67;92.56;99916.13;5055741;28;20956;-53
2022/03/29 03:35:06;;;;;;;0.40;0.20;;;;;;;8.67;93.01;99912.59;5056826;28;20446;-52
2022/03/29 03:37:34;;;;;;;0.93;0.93;;;;;;;8.76;92.57;99914.97;5056077;28;20478;-52
2022/03/29 03:40:03;;;;;;;0.40;0.30;;;;;;;8.58;93.10;99913.72;5056098;28;20526;-52
2022/03/29 03:42:30;;;;;;;2.57;2.47;;;;;;;8.41;94.09;99906.22;5056407;28;20490;-52
2022/03/29 03:44:58;;;;;;;1.57;0.97;;;;;;;8.31;95.18;99908.19;5056891;28;20446;-53
2022/03/29 03:47:26;;;;;;;0.53;0.53;;;;;;;8.28;95.10;99899.47;5056524;28;20490;-53
2022/03/29 03:49:52;;;;;;;0.50;0.30;;;;;;;8.37;94.18;99896.63;5056980;28;20806;-53
2022/03/29 03:52:19;;;;;;;0.30;0.20;;;;;;;8.25;94.73;99896.88;5056291;28;20446;-53
2022/03/29 03:54:46;;;;;;;1.37;1.37;;;;;;;8.10;95.26;99892.84;5038778;28;20536;-53
2022/03/29 03:57:12;;;;;;;0.30;0.20;;;;;;;8.15;94.76;99890.94;5056566;28;20446;-53
2022/03/29 03:59:39;;;;;;;0.30;0.20;;;;;;;8.02;94.69;99889.50;5056146;28;20443;-53
2022/03/29 04:02:05;;;;;;;0.30;0.20;;;;;;;8.01;94.90;99885.13;5038412;28;20518;-53
2022/03/29 04:04:32;;;;;;;0.30;0.30;;;;;;;7.96;95.52;99885.25;5056307;28;20818;-53
2022/03/29 04:06:59;;;;;;;3.67;1.03;;;;;;;7.89;95.35;99886.28;5038477;28;20450;-53
2022/03/29 04:09:27;;;;;;;0.40;0.30;;;;;;;7.98;95.49;99879.91;5056094;28;20455;-53
2022/03/29 04:11:53;;;;;;;0.73;0.73;;;;;;;7.97;94.96;99876.41;5038531;28;20549;-53
2022/03/29 04:14:20;;;;;;;0.50;0.40;;;;;;;7.88;94.88;99876.63;5056394;28;20504;-53
2022/03/29 04:16:46;;;;;;;0.30;0.20;;;;;;;7.95;95.67;99865.00;5056296;28;20447;-55
2022/03/29 04:19:13;;;;;;;0.80;0.80;;;;;;;8.00;95.26;99868.38;5055663;28;20482;-53
2022/03/29 04:21:40;;;;;;;0.30;0.20;;;;;;;7.90;95.26;99866.88;5055881;28;20486;-53
2022/03/29 04:24:06;;;;;;;0.30;0.20;;;;;;;8.08;95.31;99862.88;5037263;28;20478;-54
2022/03/29 04:26:33;;;;;;;1.60;0.57;;;;;;;8.17;94.10;99857.38;5055974;28;20493;-53
2022/03/29 04:29:00;;;;;;;0.87;0.87;;;;;;;8.30;93.91;99853.50;5055940;28;20548;-53
2022/03/29 04:31:27;;;;;;;0.43;0.43;;;;;;;8.38;92.71;99852.47;5038111;28;20520;-53
2022/03/29 04:33:53;;;;;;;0.40;0.40;;;;;;;8.32;93.34;99861.38;5055616;28;20493;-53
2022/03/29 04:36:20;;;;;;;0.30;0.20;;;;;;;8.73;91.04;99864.72;5055394;28;20498;-54
2022/03/29 04:38:47;;;;;;;0.30;0.20;;;;;;;8.31;92.72;99855.22;5055003;28;20494;-53
2022/03/29 04:41:14;;;;;;;1.80;0.70;;;;;;;8.28;94.10;99865.03;5055517;28;20496;-54
2022/03/29 04:43:40;;;;;;;0.30;0.20;;;;;;;8.20;93.66;99859.06;5055515;28;20462;-53
2022/03/29 04:46:07;;;;;;;1.13;1.13;;;;;;;8.17;93.72;99867.09;5055242;28;20505;-55
2022/03/29 04:48:34;;;;;;;0.97;0.97;;;;;;;8.03;94.47;99860.38;5054974;28;20976;-54
2022/03/29 04:51:01;;;;;;;1.07;1.07;;;;;;;8.01;95.09;99856.88;5055120;28;20872;-54
2022/03/29 04:53:28;;;;;;;0.50;0.50;;;;;;;7.73;96.04;99855.84;5055818;28;20486;-53
2022/03/29 04:55:55;;;;;;;0.30;0.20;;;;;;;7.80;96.95;99848.59;5056782;28;20455;-53
2022/03/29 04:58:26;;;;;;;0.90;0.90;;;;;;;7.98;95.18;99833.16;5055940;28;20467;-54
2022/03/29 05:00:53;;;;;;;0.30;0.20;;;;;;;8.03;94.65;99830.38;5042275;28;20459;-54
2022/03/29 05:03:20;;;;;;;0.53;0.53;;;;;;;8.15;94.54;99839.78;5036978;28;20514;-54
2022/03/29 05:05:47;;;;;;;0.30;0.20;;;;;;;8.15;94.78;99840.66;5055344;28;20533;-54
2022/03/29 05:08:13;;;;;;;0.40;0.40;;;;;;;8.11;94.21;99835.50;5054679;28;20466;-54
2022/03/29 05:10:40;;;;;;;0.97;0.97;;;;;;;8.22;94.06;99836.06;5054769;28;20504;-54
2022/03/29 05:13:07;;;;;;;2.80;1.50;;;;;;;8.05;94.95;99835.63;5054570;28;20493;-53
2022/03/29 05:15:34;;;;;;;0.30;0.20;;;;;;;8.15;94.55;99837.13;5054617;28;20458;-54
2022/03/29 05:18:01;;;;;;;0.30;0.20;;;;;;;8.16;95.15;99838.88;5054227;28;20882;-53
2022/03/29 05:20:27;;;;;;;0.50;0.50;;;;;;;7.94;96.11;99838.53;5054708;28;20451;-53
2022/03/29 05:22:57;;;;;;;0.30;0.20;;;;;;;8.01;96.09;99833.06;5054721;28;20490;-54
2022/03/29 05:25:26;;;;;;;0.30;0.20;;;;;;;8.03;96.43;99843.63;5036918;28;20815;-54
2022/03/29 05:27:53;;;;;;;0.40;0.30;;;;;;;8.12;95.22;99835.44;5054601;28;20525;-54
2022/03/29 05:30:21;;;;;;;0.30;0.20;;;;;;;7.97;96.45;99849.06;5054645;28;20936;-53
2022/03/29 05:32:51;;;;;;;0.60;0.60;;;;;;;7.96;96.53;99848.22;5054157;28;20451;-54
2022/03/29 05:35:18;;;;;;;0.30;0.20;;;;;;;7.97;96.05;99847.28;5054484;28;20450;-53
2022/03/29 05:37:45;;;;;;;0.30;0.20;;;;;;;8.06;95.50;99846.19;5054035;28;20486;-54
2022/03/29 05:40:12;;;;;;;0.60;0.60;;;;;;;8.06;95.97;99846.19;5054019;28;20447;-54
2022/03/29 05:42:40;;;;;;;5.60;0.87;;;;;;;8.15;95.63;99848.59;5054165;28;20788;-53
2022/03/29 05:45:08;;;;;;;1.97;1.77;;;;;;;8.08;95.83;99841.69;5053862;28;20446;-53
2022/03/29 05:50:21;;;;;;;7.93;0.83;;;;;;;8.00;96.77;99836.63;5054310;28;20457;-53
2022/03/29 05:52:48;;;;;;;0.30;0.20;;;;;;;8.16;95.75;99838.88;5054347;28;20443;-53
2022/03/29 05:55:15;;;;;;;0.30;0.20;;;;;;;8.14;96.02;99838.91;5053333;28;20501;-54
2022/03/29 05:57:42;;;;;;;0.70;0.70;;;;;;;8.11;95.49;99839.00;5053362;28;20470;-54
2022/03/29 06:00:10;;;;;;;2.07;1.13;;;;;;;8.14;96.76;99843.34;5054303;28;20447;-53
2022/03/29 06:02:37;;;;;;;0.30;0.30;;;;;;;8.23;95.38;99840.47;5036447;28;20490;-54
2022/03/29 06:05:06;;;;;;;1.13;0.67;;;;;;;8.20;95.58;99846.69;5054120;28;20505;-54
2022/03/29 06:07:33;;;;;;;0.50;0.50;;;;;;;8.29;95.99;99845.59;5036117;28;20842;-54
2022/03/29 06:10:00;;;;;;;26.17;1.20;;;;;;;8.34;95.44;99846.34;5036066;28;20940;-54
2022/03/29 06:12:27;;;;;;;0.60;0.60;;;;;;;8.50;95.00;99845.06;5053824;28;20936;-53
2022/03/29 06:14:54;;;;;;;1.07;1.07;;;;;;;8.33;96.45;99856.03;5053288;28;20861;-54
2022/03/29 06:17:20;;;;;;;0.30;0.20;;;;;;;8.46;96.08;99851.31;5053848;28;20528;-54
2022/03/29 06:19:47;;;;;;;0.77;0.77;;;;;;;8.53;95.39;99854.69;5053724;28;20451;-53
2022/03/29 06:22:14;;;;;;;1.10;1.10;;;;;;;8.53;95.65;99857.34;5053272;28;20525;-53
2022/03/29 06:24:40;;;;;;;0.30;0.20;;;;;;;8.54;95.84;99857.28;5053237;28;20451;-53
2022/03/29 06:27:07;;;;;;;0.40;0.30;;;;;;;8.67;94.64;99863.13;5035598;28;20447;-53
2022/03/29 06:29:37;;;;;;;0.60;0.60;;;;;;;8.78;95.48;99862.84;5053022;28;20455;-54
2022/03/29 06:32:04;;;;;;;0.93;0.50;;;;;;;8.97;93.80;99864.03;5053686;28;20504;-54
2022/03/29 06:34:31;;;;;;;0.40;0.37;;;;;;;8.91;94.21;99866.88;5053069;28;20450;-53
2022/03/29 06:36:57;;;;;;;1.30;1.20;;;;;;;8.98;93.80;99865.78;5035515;28;20836;-54
2022/03/29 06:39:24;;;;;;;0.40;0.40;;;;;;;9.08;93.95;99864.59;5052696;28;20458;-54
2022/03/29 06:41:51;;;;;;;0.30;0.20;;;;;;;9.17;92.81;99868.75;5053455;28;20517;-54
2022/03/29 06:44:23;;;;;;;0.67;0.67;;;;;;;9.18;92.49;99866.06;5052685;28;20447;-54
2022/03/29 06:46:50;;;;;;;0.30;0.20;;;;;;;9.31;90.89;99861.25;5053134;28;20886;-54
2022/03/29 06:49:16;;;;;;;0.53;0.53;;;;;;;9.45;92.13;99869.66;5052709;28;20471;-54
2022/03/29 06:51:44;;;;;;;2.20;2.17;;;;;;;9.46;92.55;99867.91;5052670;28;20458;-54
2022/03/29 06:54:11;;;;;;;0.30;0.20;;;;;;;9.65;92.52;99877.00;5052473;28;20508;-54
2022/03/29 06:56:38;;;;;;;0.67;0.67;;;;;;;9.62;91.17;99871.81;5052604;28;20447;-54
2022/03/29 06:59:04;;;;;;;0.30;0.20;;;;;;;9.82;89.78;99868.50;5051093;28;20471;-54
2022/03/29 07:01:31;;;;;;;2.20;1.50;;;;;;;10.14;89.02;99870.09;5052539;28;20463;-54
2022/03/29 07:03:59;;;;;;;5.70;2.20;;;;;;;10.11;87.92;99872.84;5051920;28;20454;-54
2022/03/29 07:06:31;;;;;;;0.67;0.67;;;;;;;10.14;87.63;99864.78;5051922;28;20474;-54
2022/03/29 07:12:01;;;;;;;0.73;0.73;;;;;;;10.42;87.12;99866.53;5051889;28;20931;-54
2022/03/29 07:14:28;;;;;;;0.30;0.20;;;;;;;10.53;86.22;99867.88;5034212;28;20501;-54
2022/03/29 07:16:55;;;;;;;0.70;0.70;;;;;;;10.57;86.05;99861.56;5051585;28;20548;-54
2022/03/29 07:19:23;;;;;;;2.30;1.60;;;;;;;10.65;85.79;99867.44;5034437;28;20450;-54
2022/03/29 07:21:50;;;;;;;0.60;0.60;;;;;;;10.66;85.63;99860.34;5051717;28;20451;-54
2022/03/29 07:24:17;;;;;;;0.40;0.30;;;;;;;10.82;85.34;99861.53;5051713;28;20455;-54
2022/03/29 07:26:44;;;;;;;0.37;0.27;;;;;;;10.82;85.16;99858.00;5033943;28;20450;-54
2022/03/29 07:29:15;;;;;;;0.63;0.63;;;;;;;10.87;85.10;99850.72;5051371;28;20467;-54
2022/03/29 07:31:42;;;;;;;1.40;1.30;;;;;;;11.03;84.52;99854.56;5051739;28;20501;-54
2022/03/29 07:34:09;;;;;;;0.40;0.40;;;;;;;11.04;84.74;99855.41;5051671;28;20459;-54
2022/03/29 07:36:36;;;;;;;1.10;1.00;;;;;;;11.04;83.97;99858.09;5051543;28;20485;-54
2022/03/29 07:39:03;;;;;;;0.47;0.47;;;;;;;11.15;84.06;99859.41;5008120;22;20977;-49
2022/03/29 07:41:30;;;;;;;0.30;0.20;;;;;;;11.24;83.49;99851.09;4989901;28;20456;-49
2022/03/29 07:43:57;;;;;;;2.33;1.00;;;;;;;11.36;83.18;99851.53;4989164;28;21054;-49
2022/03/29 07:46:24;;;;;;;1.70;1.60;;;;;;;11.48;82.54;99856.38;4989837;28;20458;-49
2022/03/29 07:48:51;;;;;;;1.50;1.50;;;;;;;11.50;82.00;99849.19;5060201;28;20469;-49
2022/03/29 07:51:38;;;;;;;0.30;0.20;;;;;;;11.60;81.59;99847.91;5083037;28;20540;-49
2022/03/29 07:54:05;;;;;;;0.40;0.30;;;;;;;11.75;80.88;99846.41;5078124;28;20568;-49
2022/03/29 07:56:32;;;;;;;0.30;0.20;;;;;;;11.88;80.48;99845.03;5079521;28;20828;-49
2022/03/29 07:58:59;;;;;;;3.87;3.57;;;;;;;11.96;80.09;99847.38;5085165;28;20462;-49
2022/03/29 08:01:27;;;;;;;1.27;1.27;;;;;;;12.13;80.23;99848.41;5083553;28;20448;-49
2022/03/29 08:03:55;;;;;;;0.40;0.40;;;;;;;12.16;80.36;99842.06;5078023;28;20517;-49
2022/03/29 08:06:21;;;;;;;1.83;1.83;;;;;;;12.36;79.96;99843.91;5068463;28;20461;-49
2022/03/29 08:08:48;;;;;;;0.70;0.70;;;;;;;12.34;79.63;99843.13;5084888;28;20523;-49
2022/03/29 08:11:15;;;;;;;1.07;1.07;;;;;;;12.66;80.15;99837.22;5087895;28;20505;-49
2022/03/29 08:13:41;;;;;;;0.60;0.60;;;;;;;12.60;79.81;99842.81;5081284;28;20557;-49
2022/03/29 08:16:08;;;;;;;0.40;0.30;;;;;;;12.87;78.91;99837.19;5082433;28;20450;-49
2022/03/29 08:18:38;;;;;;;1.90;1.80;;;;;;;13.28;77.29;99836.19;5088286;28;20843;-49
2022/03/29 08:21:47;;;;;;;39.00;2.70;;;;;;;13.07;78.19;99825.63;5088125;28;20503;-55
2022/03/29 08:23:51;;;;;;;0.97;0.97;;;;;;;13.31;76.81;99829.84;5084523;28;20984;-49
2022/03/29 08:26:18;;;;;;;0.53;0.53;;;;;;;13.18;76.42;99826.00;5081692;28;20449;-50
2022/03/29 08:28:46;;;;;;;0.40;0.30;;;;;;;13.12;77.77;99828.94;5085161;28;20978;-50
2022/03/29 08:31:13;;;;;;;2.53;1.50;;;;;;;13.16;77.34;99834.06;5087942;28;20971;-50
2022/03/29 08:33:39;;;;;;;1.10;0.70;;;;;;;13.12;77.73;99834.28;5085299;28;20445;-50
2022/03/29 08:36:06;;;;;;;0.30;0.20;;;;;;;13.39;75.73;99833.00;5080928;28;20452;-52
2022/03/29 08:38:32;;;;;;;0.40;0.30;;;;;;;13.15;77.11;99834.13;5083568;28;20895;-52
2022/03/29 08:41:00;;;;;;;0.30;0.20;;;;;;;13.13;77.90;99828.84;5087877;28;20472;-53
2022/03/29 08:43:29;;;;;;;23.53;2.77;;;;;;;13.44;77.13;99833.69;5085666;28;20566;-51
2022/03/29 08:45:57;;;;;;;0.30;0.20;;;;;;;13.84;75.65;99827.25;5081002;28;20876;-52
2022/03/29 08:48:26;;;;;;;0.40;0.30;;;;;;;13.73;75.39;99824.25;5082728;28;20510;-52
2022/03/29 08:50:54;;;;;;;0.40;0.40;;;;;;;13.53;75.58;99829.69;5087838;28;20450;-52
2022/03/29 08:53:38;;;;;;;0.30;0.20;;;;;;;13.46;75.67;99826.44;5087694;28;20441;-49
2022/03/29 08:56:05;;;;;;;5.03;2.57;;;;;;;13.67;75.21;99827.22;5082331;28;20490;-53
2022/03/29 08:58:32;;;;;;;0.87;0.80;;;;;;;13.93;74.43;99816.09;5079146;28;20974;-52
2022/03/29 09:00:58;;;;;;;0.50;0.50;;;;;;;14.05;74.22;99811.97;5081848;28;21070;-53
2022/03/29 09:03:25;;;;;;;4.23;3.17;;;;;;;14.27;72.12;99810.88;5080725;28;20489;-52
2022/03/29 09:06:09;;;;;;;0.40;0.30;;;;;;;13.89;73.45;99806.53;5074718;28;20529;-52
2022/03/29 09:08:43;;;;;;;3.00;0.83;;;;;;;14.34;73.51;99805.13;5087224;28;20474;-52
2022/03/29 09:11:09;;;;;;;0.40;0.40;;;;;;;14.48;73.36;99807.09;5085794;28;20507;-53
2022/03/29 09:13:36;;;;;;;0.60;0.60;;;;;;;14.66;72.04;99806.13;5080377;28;20441;-52
2022/03/29 09:16:05;;;;;;;16.33;1.90;;;;;;;14.36;72.93;99810.38;5081860;28;20450;-52
2022/03/29 09:18:32;;;;;;;1.90;0.73;;;;;;;14.39;73.41;99802.19;5086887;28;21004;-52
2022/03/29 09:21:12;;;;;;;7.10;2.47;;;;;;;14.47;73.44;99808.06;5085568;28;20505;-52
2022/03/29 09:23:44;;;;;;;3.10;3.00;;;;;;;14.67;72.53;99812.38;5085609;28;20482;-53
2022/03/29 09:26:27;;;;;;;1.63;1.27;;;;;;;14.58;72.58;99803.00;5087018;28;20495;-52
2022/03/29 09:28:54;;;;;;;12.37;3.40;;;;;;;14.75;71.66;99799.44;5085118;28;20506;-52
2022/03/29 09:31:23;;;;;;;11.97;2.40;;;;;;;14.80;71.53;99789.34;5079951;28;20510;-51
2022/03/29 09:33:49;;;;;;;4.07;3.87;;;;;;;14.70;71.80;99794.34;5081745;28;20442;-51
2022/03/29 09:36:20;;;;;;;0.30;0.20;;;;;;;14.61;68.48;99797.50;5061061;28;20454;-52
2022/03/29 09:38:51;;;;;;;4.33;2.87;;;;;;;14.84;66.86;99790.06;5074916;28;20485;-49
2022/03/29 09:41:21;;;;;;;2.03;1.93;;;;;;;14.84;66.20;99790.06;5086755;28;20442;-53
2022/03/29 09:44:03;;;;;;;2.60;1.47;;;;;;;15.14;65.34;99792.84;5086838;28;20541;-53
2022/03/29 09:46:30;;;;;;;1.67;1.57;;;;;;;15.07;65.87;99798.53;5082514;28;20457;-52
2022/03/29 09:49:01;;;;;;;2.30;1.70;;;;;;;14.98;64.93;99784.81;5079493;28;20526;-51
2022/03/29 09:51:28;;;;;;;5.53;0.93;;;;;;;15.27;64.95;99783.19;5083174;28;20450;-53
2022/03/29 09:54:01;;;;;;;0.40;0.30;;;;;;;15.02;65.53;99778.34;5086457;28;20446;-53
2022/03/29 09:56:30;;;;;;;0.73;0.73;;;;;;;14.93;65.88;99785.03;5084130;28;20453;-52
2022/03/29 09:59:16;;;;;;;3.93;0.80;;;;;;;15.07;64.72;99771.75;5085509;28;20500;-51
2022/03/29 10:01:48;;;;;;;0.83;0.80;;;;;;;15.09;64.48;99764.53;5086534;28;20472;-53
2022/03/29 10:04:16;;;;;;;0.77;0.77;;;;;;;15.27;64.90;99753.75;5080610;28;20892;-51
2022/03/29 10:06:49;;;;;;;2.20;1.53;;;;;;;15.15;65.52;99757.09;5068919;28;20445;-52
2022/03/29 10:09:29;;;;;;;1.23;1.23;;;;;;;15.04;65.81;99757.69;5083425;28;20465;-53
2022/03/29 10:12:00;;;;;;;2.93;1.23;;;;;;;14.92;65.21;99750.34;5085808;28;20449;-52
2022/03/29 10:14:27;;;;;;;0.40;0.30;;;;;;;15.35;64.92;99738.09;5084883;28;20801;-52
2022/03/29 10:16:56;;;;;;;0.50;0.50;;;;;;;15.52;64.79;99738.00;5079305;28;20856;-52
2022/03/29 10:19:23;;;;;;;3.60;3.27;;;;;;;15.55;64.27;99735.13;5079934;28;20476;-53
2022/03/29 10:21:53;;;;;;;22.40;2.10;;;;;;;15.64;63.72;99726.63;5085976;28;20450;-52
2022/03/29 10:24:21;;;;;;;0.50;0.50;;;;;;;16.05;62.51;99722.44;5065600;28;20527;-52
2022/03/29 10:26:49;;;;;;;0.40;0.30;;;;;;;16.02;62.05;99718.09;5085248;28;20453;-52
2022/03/29 10:29:16;;;;;;;1.50;1.50;;;;;;;15.89;62.90;99719.78;5078759;28;20962;-52
2022/03/29 10:31:55;;;;;;;0.63;0.63;;;;;;;15.70;62.22;99722.69;5084426;28;20863;-52
2022/03/29 10:34:21;;;;;;;0.83;0.83;;;;;;;16.11;61.47;99708.63;5085638;28;20935;-52
2022/03/29 10:37:08;;;;;;;0.50;0.50;;;;;;;16.45;60.60;99704.78;5081871;28;20518;-52
2022/03/29 10:39:48;;;;;;;0.30;0.30;;;;;;;15.83;63.05;99699.56;5078680;28;20460;-52
2022/03/29 10:42:38;;;;;;;1.00;1.00;;;;;;;16.13;62.00;99691.50;5078932;28;20450;-52
2022/03/29 10:45:25;;;;;;;0.40;0.30;;;;;;;15.92;62.11;99690.13;5079747;28;20442;-52
2022/03/29 10:47:59;;;;;;;3.20;2.90;;;;;;;16.35;61.50;99692.88;5067465;28;20504;-52
2022/03/29 10:50:53;;;;;;;3.23;3.13;;;;;;;16.03;62.85;99684.97;5079081;28;20446;-52
2022/03/29 10:53:36;;;;;;;1.73;1.63;;;;;;;16.03;62.97;99676.91;5080019;28;20442;-52
2022/03/29 10:56:19;;;;;;;0.50;0.40;;;;;;;16.15;61.38;99673.50;5067815;28;20506;-52
2022/03/29 10:59:04;;;;;;;1.60;1.60;;;;;;;15.98;60.96;99685.25;5075326;28;20853;-52
2022/03/29 11:01:32;;;;;;;1.33;1.00;;;;;;;16.08;61.62;99684.69;5084280;28;20967;-53
2022/03/29 11:04:06;;;;;;;1.30;1.20;;;;;;;16.14;60.43;99665.53;5077177;28;20575;-53
2022/03/29 11:06:34;;;;;;;0.40;0.40;;;;;;;16.28;60.33;99665.56;5067512;28;20448;-53
2022/03/29 11:09:17;;;;;;;1.00;1.00;;;;;;;16.01;60.49;99665.44;5084737;28;20834;-53
2022/03/29 11:11:47;;;;;;;3.80;2.93;;;;;;;16.17;60.24;99655.50;5085196;28;20453;-53
2022/03/29 11:14:30;;;;;;;0.40;0.30;;;;;;;16.36;60.05;99654.38;5082526;28;20799;-50
2022/03/29 11:17:06;;;;;;;0.63;0.63;;;;;;;16.57;58.76;99651.16;5077264;28;20453;-52
2022/03/29 11:19:50;;;;;;;1.40;1.40;;;;;;;16.53;59.26;99646.97;5077851;28;20462;-53
2022/03/29 11:22:23;;;;;;;1.10;1.03;;;;;;;16.29;59.32;99645.81;5082421;28;20446;-52
2022/03/29 11:24:54;;;;;;;0.40;0.40;;;;;;;15.94;60.71;99643.50;5084911;28;21002;-52
2022/03/29 11:27:31;;;;;;;0.90;0.90;;;;;;;16.23;59.33;99636.34;5083073;28;20453;-53
2022/03/29 11:29:59;;;;;;;0.83;0.83;;;;;;;16.67;60.02;99630.00;5078295;28;20941;-53
2022/03/29 11:32:26;;;;;;;0.40;0.30;;;;;;;16.48;59.11;99637.50;5078330;28;20445;-53
2022/03/29 11:34:57;;;;;;;3.33;2.93;;;;;;;16.35;59.67;99639.22;5067478;28;20512;-52
2022/03/29 11:37:27;;;;;;;1.80;1.70;;;;;;;16.07;60.11;99630.22;5065942;28;20446;-53
2022/03/29 11:39:54;;;;;;;0.80;0.80;;;;;;;16.16;59.99;99639.50;5083554;28;20931;-53
2022/03/29 11:42:20;;;;;;;0.93;0.87;;;;;;;16.56;59.49;99627.97;5084935;28;20480;-53
2022/03/29 11:44:48;;;;;;;2.57;2.27;;;;;;;16.67;58.42;99627.34;5082158;28;20543;-53
2022/03/29 11:47:15;;;;;;;2.70;2.50;;;;;;;16.47;58.56;99620.53;5081805;28;20450;-53
2022/03/29 11:49:44;;;;;;;3.20;1.93;;;;;;;16.79;57.85;99614.94;5086376;28;20523;-53
2022/03/29 11:52:13;;;;;;;1.93;0.60;;;;;;;16.85;57.87;99618.06;5088873;28;20488;-52